< < Back
Terminal Aerodrome Forecast


Current Version              Previous Versions:   1  2  3  4  5  6  7  8  9  

Terminal Aerodrome Forecast

121
FTUS44 KMOB 240528
TAFMOB
TAF
KMOB 240528Z 2406/2506 12007KT P6SM SCT250
     FM241200 10010KT P6SM BKN050
     FM241800 14015KT P6SM VCTS BKN020CB PROB30 2419/2424 VRB15KT
      TSRA BKN010CB
     FM250100 15010KT P6SM BKN030=

Latest METAR

001
SAUS80 KWBC 240900
MTRMOB
METAR KMOB 240856Z AUTO 10007KT 9SM CLR 23/22 A3014 RMK AO2 SLP203
T02330222 56005 $


USA.gov is the U.S. government's official web portal to all federal, state and local government web resources and services.